Megalochari Xiv — SVA5420 — position and weather

sailwx.info

Track history (hours):
 
Tides and Currents Weather Stations Pressure Air Temp Water Temp Dewpoint Dewpoint Depression Visibility Wind Speed Wind Dir Waves Ship Positions

Megalochari Xiv

Last reported at 2018-Jun-20 05:30 UTC. Time now 2018-Jun-20 05:47 UTC.
Position N 37°57' E 023°36'.

Length 29 m; draft 4.2 m.

Type: Tug. MMSI: 239814500.

Date/timePositionNaut miles runAvg speedWind from/ knotsBaromVisibWave heightAir tempDewpointWater temp
2018-Jun-20 05:30N 37°57' E 023°36'0 0.0
2018-Jun-20 05:00N 37°57' E 023°36'0 0.0
2018-Jun-20 04:29N 37°57' E 023°36'0 0.0
2018-Jun-19 13:19N 37°57' E 023°36'0 0.0
2018-Jun-19 13:00N 37°57' E 023°36'0 0.0
2018-Jun-19 12:30N 37°57' E 023°36'0 0.0
2018-Jun-19 12:00N 37°57' E 023°36'1 1.0
2018-Jun-19 11:30N 37°57' E 023°37'0 0.0
2018-Jun-19 11:00N 37°57' E 023°37'0 0.0
2018-Jun-19 10:30N 37°57' E 023°37'0 0.0
2018-Jun-19 10:00N 37°57' E 023°37'0 0.0
2018-Jun-19 09:30N 37°57' E 023°37'0 0.3
2018-Jun-19 09:00N 37°58' E 023°37'0 0.0
2018-Jun-19 08:30N 37°58' E 023°37'0 0.0
2018-Jun-19 08:00N 37°58' E 023°37'0 0.0
2018-Jun-19 07:30N 37°58' E 023°37'1 1.2
2018-Jun-19 07:00N 37°57' E 023°36'3 5.5
2018-Jun-19 06:30N 37°58' E 023°33'2 3.0
2018-Jun-19 06:00N 37°57' E 023°35'2 3.0
2018-Jun-19 05:30N 37°57' E 023°36'0 0.0
2018-Jun-19 05:00N 37°57' E 023°36'0 0.0
2018-Jun-19 04:30N 37°57' E 023°36'0 0.0
2018-Jun-19 04:00N 37°57' E 023°36'0 0.0
2018-Jun-19 03:30N 37°57' E 023°36'0 0.0
2018-Jun-18 10:48N 37°57' E 023°36'0 0.0
2018-Jun-18 10:30N 37°57' E 023°36'0 0.0
2018-Jun-18 10:00N 37°57' E 023°36'0 0.0
2018-Jun-18 09:30N 37°57' E 023°36'0 0.0
2018-Jun-18 09:00N 37°57' E 023°36'0 0.0
2018-Jun-18 08:30N 37°57' E 023°36'0 0.0
2018-Jun-18 08:00N 37°57' E 023°36'0 0.0
2018-Jun-18 07:30N 37°57' E 023°36'0 0.0
2018-Jun-18 07:00N 37°57' E 023°36'0 0.0
2018-Jun-18 06:30N 37°57' E 023°36'0 0.0
2018-Jun-18 06:00N 37°57' E 023°36'0 0.0
2018-Jun-18 05:30N 37°57' E 023°36'2 3.2
2018-Jun-18 05:00N 37°56' E 023°38'1 2.4
2018-Jun-18 04:30N 37°56' E 023°37'0 0.6
2018-Jun-18 04:00N 37°56' E 023°36'0 0.8
2018-Jun-18 03:30N 37°57' E 023°36'0 0.0
2018-Jun-16 04:12N 37°57' E 023°36'0 0.0
2018-Jun-16 04:01N 37°57' E 023°36'1 1.3
2018-Jun-16 03:30N 37°58' E 023°37'0 0.0
2018-Jun-16 03:01N 37°58' E 023°37'1 1.9
2018-Jun-16 02:31N 37°57' E 023°36'1 2.9
2018-Jun-16 02:01N 37°56' E 023°38'0 0.0
2018-Jun-16 01:31N 37°56' E 023°38'0 0.0
2018-Jun-16 01:01N 37°56' E 023°38'0 0.5
2018-Jun-16 00:31N 37°56' E 023°37'1 1.3
2018-Jun-16 00:01N 37°57' E 023°36'0 1.0
2018-Jun-15 23:31N 37°57' E 023°36'0 0.0
2018-Jun-15 23:01N 37°57' E 023°36'0 0.0
2018-Jun-15 22:31N 37°57' E 023°36'0 0.0
2018-Jun-15 22:00N 37°57' E 023°36'0 0.0
2018-Jun-15 21:30N 37°57' E 023°36'0 0.0
2018-Jun-15 21:00N 37°57' E 023°36'0 0.0
2018-Jun-15 20:31N 37°57' E 023°36'0 0.0
2018-Jun-15 20:01N 37°57' E 023°36'0 0.0
2018-Jun-15 19:30N 37°57' E 023°36'0 0.0
2018-Jun-15 19:00N 37°57' E 023°36'0 0.0
2018-Jun-15 18:30N 37°57' E 023°36'0 0.3
2018-Jun-15 18:00N 37°57' E 023°36'3 6.3
2018-Jun-15 17:30N 37°59' E 023°33'1 2.7
2018-Jun-15 17:01N 37°58' E 023°34'0 0.0
2018-Jun-15 16:31N 37°58' E 023°34'0 0.0
2018-Jun-15 16:01N 37°58' E 023°34'2 4.4
2018-Jun-15 15:30N 37°57' E 023°36'2 3.4
2018-Jun-15 15:00N 37°56' E 023°38'0 0.0
2018-Jun-15 14:30N 37°56' E 023°38'0 0.0
2018-Jun-15 14:00N 37°56' E 023°38'1 1.7
2018-Jun-15 13:30N 37°56' E 023°37'1 2.5
2018-Jun-15 13:00N 37°58' E 023°37'0 0.0
2018-Jun-15 12:31N 37°58' E 023°37'0 0.0
2018-Jun-15 12:00N 37°58' E 023°37'0 0.0
2018-Jun-15 11:30N 37°58' E 023°37'0 0.0
2018-Jun-15 11:01N 37°58' E 023°37'1 1.8
2018-Jun-15 10:30N 37°57' E 023°36'0 0.0
2018-Jun-15 10:01N 37°57' E 023°36'0 0.0
2018-Jun-15 09:30N 37°57' E 023°36'0 0.0
2018-Jun-15 09:01N 37°57' E 023°36'0 0.0
2018-Jun-15 08:31N 37°57' E 023°36'0 0.0
2018-Jun-15 08:01N 37°57' E 023°36'0 0.0
2018-Jun-15 07:30N 37°57' E 023°36'0 0.0
2018-Jun-15 07:00N 37°57' E 023°36'0 0.0
2018-Jun-15 06:31N 37°57' E 023°36'0 0.0
2018-Jun-15 06:01N 37°57' E 023°36'0 0.0
2018-Jun-15 05:30N 37°57' E 023°36'0 0.0
2018-Jun-15 05:01N 37°57' E 023°36'0 0.0
2018-Jun-15 04:30N 37°57' E 023°36'1 1.9
2018-Jun-15 04:01N 37°56' E 023°37'1 2.1
2018-Jun-15 03:31N 37°56' E 023°38'1 2.9
2018-Jun-15 03:00N 37°56' E 023°36'1 0.1
2018-Jun-14 15:35N 37°58' E 023°37'0 0.1
2018-Jun-14 15:30N 37°58' E 023°37'0 0.0
2018-Jun-14 15:00N 37°58' E 023°37'0 0.0
2018-Jun-14 14:30N 37°58' E 023°37'0 0.0
2018-Jun-14 14:00N 37°58' E 023°37'1 1.2
2018-Jun-14 13:30N 37°57' E 023°36'2 3.0
2018-Jun-14 13:00N 37°57' E 023°34'1 2.2
2018-Jun-14 12:30N 37°57' E 023°33'1 1.3
2018-Jun-14 12:00N 37°57' E 023°34'2 3.5
2018-Jun-14 11:30N 37°57' E 023°36'0 0.0
2018-Jun-14 11:00N 37°57' E 023°36'0 0.0
2018-Jun-14 10:30N 37°57' E 023°36'0 0.0
2018-Jun-14 10:00N 37°57' E 023°36'0 0.0
2018-Jun-14 09:30N 37°57' E 023°36'0 0.0
2018-Jun-14 09:00N 37°57' E 023°36'0 0.0
2018-Jun-14 08:29N 37°57' E 023°36'0 0.0
2018-Jun-14 05:37N 37°57' E 023°36'1 0.4
2018-Jun-14 04:12N 37°57' E 023°36'1 0.7
2018-Jun-14 03:07N 37°56' E 023°37'1 6.0
2018-Jun-14 02:59N 37°56' E 023°36'1 0.1
2018-Jun-13 14:54N 37°57' E 023°36'1 1.6
2018-Jun-13 14:30N 37°57' E 023°35'1 2.4
2018-Jun-13 14:00N 37°58' E 023°37'0 0.0
2018-Jun-13 13:30N 37°58' E 023°37'0 0.0
2018-Jun-13 13:00N 37°58' E 023°37'0 0.0
2018-Jun-13 12:30N 37°58' E 023°37'0 0.0
2018-Jun-13 12:00N 37°58' E 023°37'0 0.0
2018-Jun-13 11:30N 37°58' E 023°37'0 0.0
2018-Jun-13 11:00N 37°58' E 023°37'0 0.0
2018-Jun-13 10:30N 37°58' E 023°37'0 0.0
2018-Jun-13 10:00N 37°58' E 023°37'0 0.0
2018-Jun-13 09:30N 37°58' E 023°37'0 0.0
2018-Jun-13 09:00N 37°58' E 023°37'0 0.0
2018-Jun-13 08:30N 37°58' E 023°37'0 0.0
2018-Jun-13 07:59N 37°58' E 023°37'0 0.0
2018-Jun-13 07:30N 37°58' E 023°37'0 0.0
2018-Jun-13 07:00N 37°58' E 023°37'0 0.0
2018-Jun-13 06:30N 37°58' E 023°37'0 0.0
2018-Jun-13 06:00N 37°58' E 023°37'0 0.0
2018-Jun-13 05:30N 37°58' E 023°37'0 0.0
2018-Jun-13 05:00N 37°58' E 023°37'0 0.0
2018-Jun-13 04:30N 37°58' E 023°37'0 0.0
2018-Jun-13 04:00N 37°58' E 023°37'0 0.0
2018-Jun-13 03:30N 37°58' E 023°37'0 0.0
2018-Jun-13 03:00N 37°58' E 023°37'0 0.0
2018-Jun-12 11:10N 37°58' E 023°37'0 0.0
2018-Jun-12 11:00N 37°58' E 023°37'0 0.0
2018-Jun-12 10:30N 37°58' E 023°37'0 0.0
2018-Jun-12 10:00N 37°58' E 023°37'0 0.0
2018-Jun-12 09:29N 37°58' E 023°37'0 0.0
2018-Jun-12 09:00N 37°58' E 023°37'0 0.0
2018-Jun-12 08:30N 37°58' E 023°37'0 0.0
2018-Jun-12 07:59N 37°58' E 023°37'0 0.0
2018-Jun-12 07:30N 37°58' E 023°37'1 1.8
2018-Jun-12 07:00N 37°57' E 023°36'0 0.0
2018-Jun-12 06:30N 37°57' E 023°36'0 0.0
2018-Jun-12 06:00N 37°57' E 023°36'0 0.0
2018-Jun-12 05:30N 37°57' E 023°36'1 1.4
2018-Jun-12 05:00N 37°58' E 023°36'1 2.4
2018-Jun-12 04:30N 37°56' E 023°36'0 0.5
2018-Jun-12 04:00N 37°56' E 023°36'1 1.5
2018-Jun-12 03:30N 37°57' E 023°36'1 1.7
2018-Jun-12 03:00N 37°58' E 023°37'0 0.0
2018-Jun-11 19:16N 37°58' E 023°37'1 4.7
2018-Jun-11 19:00N 37°56' E 023°37'1 2.1
2018-Jun-11 18:30N 37°56' E 023°38'0 0.0
2018-Jun-11 18:00N 37°56' E 023°38'0 0.0
2018-Jun-11 17:30N 37°56' E 023°38'1 1.8
2018-Jun-11 17:00N 37°56' E 023°37'2 4.1
2018-Jun-11 16:30N 37°57' E 023°35'1 1.6
2018-Jun-11 16:00N 37°57' E 023°34'1 2.4
2018-Jun-11 15:30N 37°57' E 023°36'0 0.2
2018-Jun-11 15:00N 37°57' E 023°35'0 0.0
2018-Jun-11 14:30N 37°57' E 023°35'0 0.0
2018-Jun-11 14:01N 37°57' E 023°35'1 2.2
2018-Jun-11 13:30N 37°57' E 023°34'0 0.5
2018-Jun-11 13:00N 37°57' E 023°34'0 0.3
2018-Jun-11 12:30N 37°58' E 023°34'2 3.7
2018-Jun-11 12:01N 37°57' E 023°36'1 1.7
2018-Jun-11 11:30N 37°58' E 023°37'0 0.0
2018-Jun-11 11:00N 37°58' E 023°37'0 0.0
2018-Jun-11 10:30N 37°58' E 023°37'0 0.0
2018-Jun-11 10:00N 37°58' E 023°37'0 0.0
2018-Jun-11 09:30N 37°58' E 023°37'0 0.0
2018-Jun-11 09:00N 37°58' E 023°37'0 0.0
2018-Jun-11 08:31N 37°58' E 023°37'0 0.0
2018-Jun-11 08:00N 37°58' E 023°37'0 0.0
2018-Jun-11 07:30N 37°58' E 023°37'0 0.0
2018-Jun-11 07:00N 37°58' E 023°37'0 0.0
2018-Jun-11 06:30N 37°58' E 023°37'0 0.0
2018-Jun-11 06:00N 37°58' E 023°37'0 0.0
2018-Jun-11 05:30N 37°58' E 023°37'0 0.0
2018-Jun-11 05:00N 37°58' E 023°37'0 0.0
2018-Jun-11 04:30N 37°58' E 023°37'0 0.0
2018-Jun-11 04:00N 37°58' E 023°37'0 0.0
2018-Jun-11 03:30N 37°58' E 023°37'  
Track history (hours):
 
Tides and Currents Weather Stations Pressure Air Temp Water Temp Dewpoint Dewpoint Depression Visibility Wind Speed Wind Dir Waves Ship Positions

Megalochari Xiv

Last reported at 2018-Jun-20 05:30 UTC. Time now 2018-Jun-20 05:47 UTC.
Position N 37°57' E 023°36'.

Length 29 m; draft 4.2 m.

Type: Tug. MMSI: 239814500.

Date/timePositionNaut miles runAvg speedWind from/ knotsBaromVisibWave heightAir tempDewpointWater temp
2018-Jun-20 05:30N 37°57' E 023°36'0 0.0
2018-Jun-20 05:00N 37°57' E 023°36'0 0.0
2018-Jun-20 04:29N 37°57' E 023°36'0 0.0
2018-Jun-19 13:19N 37°57' E 023°36'0 0.0
2018-Jun-19 13:00N 37°57' E 023°36'0 0.0
2018-Jun-19 12:30N 37°57' E 023°36'0 0.0
2018-Jun-19 12:00N 37°57' E 023°36'1 1.0
2018-Jun-19 11:30N 37°57' E 023°37'0 0.0
2018-Jun-19 11:00N 37°57' E 023°37'0 0.0
2018-Jun-19 10:30N 37°57' E 023°37'0 0.0
2018-Jun-19 10:00N 37°57' E 023°37'0 0.0
2018-Jun-19 09:30N 37°57' E 023°37'0 0.3
2018-Jun-19 09:00N 37°58' E 023°37'0 0.0
2018-Jun-19 08:30N 37°58' E 023°37'0 0.0
2018-Jun-19 08:00N 37°58' E 023°37'0 0.0
2018-Jun-19 07:30N 37°58' E 023°37'1 1.2
2018-Jun-19 07:00N 37°57' E 023°36'3 5.5
2018-Jun-19 06:30N 37°58' E 023°33'2 3.0
2018-Jun-19 06:00N 37°57' E 023°35'2 3.0
2018-Jun-19 05:30N 37°57' E 023°36'0 0.0
2018-Jun-19 05:00N 37°57' E 023°36'0 0.0
2018-Jun-19 04:30N 37°57' E 023°36'0 0.0
2018-Jun-19 04:00N 37°57' E 023°36'0 0.0
2018-Jun-19 03:30N 37°57' E 023°36'0 0.0
2018-Jun-18 10:48N 37°57' E 023°36'0 0.0
2018-Jun-18 10:30N 37°57' E 023°36'0 0.0
2018-Jun-18 10:00N 37°57' E 023°36'0 0.0
2018-Jun-18 09:30N 37°57' E 023°36'0 0.0
2018-Jun-18 09:00N 37°57' E 023°36'0 0.0
2018-Jun-18 08:30N 37°57' E 023°36'0 0.0
2018-Jun-18 08:00N 37°57' E 023°36'0 0.0
2018-Jun-18 07:30N 37°57' E 023°36'0 0.0
2018-Jun-18 07:00N 37°57' E 023°36'0 0.0
2018-Jun-18 06:30N 37°57' E 023°36'0 0.0
2018-Jun-18 06:00N 37°57' E 023°36'0 0.0
2018-Jun-18 05:30N 37°57' E 023°36'2 3.2
2018-Jun-18 05:00N 37°56' E 023°38'1 2.4
2018-Jun-18 04:30N 37°56' E 023°37'0 0.6
2018-Jun-18 04:00N 37°56' E 023°36'0 0.8
2018-Jun-18 03:30N 37°57' E 023°36'0 0.0
2018-Jun-16 04:12N 37°57' E 023°36'0 0.0
2018-Jun-16 04:01N 37°57' E 023°36'1 1.3
2018-Jun-16 03:30N 37°58' E 023°37'0 0.0
2018-Jun-16 03:01N 37°58' E 023°37'1 1.9
2018-Jun-16 02:31N 37°57' E 023°36'1 2.9
2018-Jun-16 02:01N 37°56' E 023°38'0 0.0
2018-Jun-16 01:31N 37°56' E 023°38'0 0.0
2018-Jun-16 01:01N 37°56' E 023°38'0 0.5
2018-Jun-16 00:31N 37°56' E 023°37'1 1.3
2018-Jun-16 00:01N 37°57' E 023°36'0 1.0
2018-Jun-15 23:31N 37°57' E 023°36'0 0.0
2018-Jun-15 23:01N 37°57' E 023°36'0 0.0
2018-Jun-15 22:31N 37°57' E 023°36'0 0.0
2018-Jun-15 22:00N 37°57' E 023°36'0 0.0
2018-Jun-15 21:30N 37°57' E 023°36'0 0.0
2018-Jun-15 21:00N 37°57' E 023°36'0 0.0
2018-Jun-15 20:31N 37°57' E 023°36'0 0.0
2018-Jun-15 20:01N 37°57' E 023°36'0 0.0
2018-Jun-15 19:30N 37°57' E 023°36'0 0.0
2018-Jun-15 19:00N 37°57' E 023°36'0 0.0
2018-Jun-15 18:30N 37°57' E 023°36'0 0.3
2018-Jun-15 18:00N 37°57' E 023°36'3 6.3
2018-Jun-15 17:30N 37°59' E 023°33'1 2.7
2018-Jun-15 17:01N 37°58' E 023°34'0 0.0
2018-Jun-15 16:31N 37°58' E 023°34'0 0.0
2018-Jun-15 16:01N 37°58' E 023°34'2 4.4
2018-Jun-15 15:30N 37°57' E 023°36'2 3.4
2018-Jun-15 15:00N 37°56' E 023°38'0 0.0
2018-Jun-15 14:30N 37°56' E 023°38'0 0.0
2018-Jun-15 14:00N 37°56' E 023°38'1 1.7
2018-Jun-15 13:30N 37°56' E 023°37'1 2.5
2018-Jun-15 13:00N 37°58' E 023°37'0 0.0
2018-Jun-15 12:31N 37°58' E 023°37'0 0.0
2018-Jun-15 12:00N 37°58' E 023°37'0 0.0
2018-Jun-15 11:30N 37°58' E 023°37'0 0.0
2018-Jun-15 11:01N 37°58' E 023°37'1 1.8
2018-Jun-15 10:30N 37°57' E 023°36'0 0.0
2018-Jun-15 10:01N 37°57' E 023°36'0 0.0
2018-Jun-15 09:30N 37°57' E 023°36'0 0.0
2018-Jun-15 09:01N 37°57' E 023°36'0 0.0
2018-Jun-15 08:31N 37°57' E 023°36'0 0.0
2018-Jun-15 08:01N 37°57' E 023°36'0 0.0
2018-Jun-15 07:30N 37°57' E 023°36'0 0.0
2018-Jun-15 07:00N 37°57' E 023°36'0 0.0
2018-Jun-15 06:31N 37°57' E 023°36'0 0.0
2018-Jun-15 06:01N 37°57' E 023°36'0 0.0
2018-Jun-15 05:30N 37°57' E 023°36'0 0.0
2018-Jun-15 05:01N 37°57' E 023°36'0 0.0
2018-Jun-15 04:30N 37°57' E 023°36'1 1.9
2018-Jun-15 04:01N 37°56' E 023°37'1 2.1
2018-Jun-15 03:31N 37°56' E 023°38'1 2.9
2018-Jun-15 03:00N 37°56' E 023°36'1 0.1
2018-Jun-14 15:35N 37°58' E 023°37'0 0.1
2018-Jun-14 15:30N 37°58' E 023°37'0 0.0
2018-Jun-14 15:00N 37°58' E 023°37'0 0.0
2018-Jun-14 14:30N 37°58' E 023°37'0 0.0
2018-Jun-14 14:00N 37°58' E 023°37'1 1.2
2018-Jun-14 13:30N 37°57' E 023°36'2 3.0
2018-Jun-14 13:00N 37°57' E 023°34'1 2.2
2018-Jun-14 12:30N 37°57' E 023°33'1 1.3
2018-Jun-14 12:00N 37°57' E 023°34'2 3.5
2018-Jun-14 11:30N 37°57' E 023°36'0 0.0
2018-Jun-14 11:00N 37°57' E 023°36'0 0.0
2018-Jun-14 10:30N 37°57' E 023°36'0 0.0
2018-Jun-14 10:00N 37°57' E 023°36'0 0.0
2018-Jun-14 09:30N 37°57' E 023°36'0 0.0
2018-Jun-14 09:00N 37°57' E 023°36'0 0.0
2018-Jun-14 08:29N 37°57' E 023°36'0 0.0
2018-Jun-14 05:37N 37°57' E 023°36'1 0.4
2018-Jun-14 04:12N 37°57' E 023°36'1 0.7
2018-Jun-14 03:07N 37°56' E 023°37'1 6.0
2018-Jun-14 02:59N 37°56' E 023°36'1 0.1
2018-Jun-13 14:54N 37°57' E 023°36'1 1.6
2018-Jun-13 14:30N 37°57' E 023°35'1 2.4
2018-Jun-13 14:00N 37°58' E 023°37'0 0.0
2018-Jun-13 13:30N 37°58' E 023°37'0 0.0
2018-Jun-13 13:00N 37°58' E 023°37'0 0.0
2018-Jun-13 12:30N 37°58' E 023°37'0 0.0
2018-Jun-13 12:00N 37°58' E 023°37'0 0.0
2018-Jun-13 11:30N 37°58' E 023°37'0 0.0
2018-Jun-13 11:00N 37°58' E 023°37'0 0.0
2018-Jun-13 10:30N 37°58' E 023°37'0 0.0
2018-Jun-13 10:00N 37°58' E 023°37'0 0.0
2018-Jun-13 09:30N 37°58' E 023°37'0 0.0
2018-Jun-13 09:00N 37°58' E 023°37'0 0.0
2018-Jun-13 08:30N 37°58' E 023°37'0 0.0
2018-Jun-13 07:59N 37°58' E 023°37'0 0.0
2018-Jun-13 07:30N 37°58' E 023°37'0 0.0
2018-Jun-13 07:00N 37°58' E 023°37'0 0.0
2018-Jun-13 06:30N 37°58' E 023°37'0 0.0
2018-Jun-13 06:00N 37°58' E 023°37'0 0.0
2018-Jun-13 05:30N 37°58' E 023°37'0 0.0
2018-Jun-13 05:00N 37°58' E 023°37'0 0.0
2018-Jun-13 04:30N 37°58' E 023°37'0 0.0
2018-Jun-13 04:00N 37°58' E 023°37'0 0.0
2018-Jun-13 03:30N 37°58' E 023°37'0 0.0
2018-Jun-13 03:00N 37°58' E 023°37'0 0.0
2018-Jun-12 11:10N 37°58' E 023°37'0 0.0
2018-Jun-12 11:00N 37°58' E 023°37'0 0.0
2018-Jun-12 10:30N 37°58' E 023°37'0 0.0
2018-Jun-12 10:00N 37°58' E 023°37'0 0.0
2018-Jun-12 09:29N 37°58' E 023°37'0 0.0
2018-Jun-12 09:00N 37°58' E 023°37'0 0.0
2018-Jun-12 08:30N 37°58' E 023°37'0 0.0
2018-Jun-12 07:59N 37°58' E 023°37'0 0.0
2018-Jun-12 07:30N 37°58' E 023°37'1 1.8
2018-Jun-12 07:00N 37°57' E 023°36'0 0.0
2018-Jun-12 06:30N 37°57' E 023°36'0 0.0
2018-Jun-12 06:00N 37°57' E 023°36'0 0.0
2018-Jun-12 05:30N 37°57' E 023°36'1 1.4
2018-Jun-12 05:00N 37°58' E 023°36'1 2.4
2018-Jun-12 04:30N 37°56' E 023°36'0 0.5
2018-Jun-12 04:00N 37°56' E 023°36'1 1.5
2018-Jun-12 03:30N 37°57' E 023°36'1 1.7
2018-Jun-12 03:00N 37°58' E 023°37'0 0.0
2018-Jun-11 19:16N 37°58' E 023°37'1 4.7
2018-Jun-11 19:00N 37°56' E 023°37'1 2.1
2018-Jun-11 18:30N 37°56' E 023°38'0 0.0
2018-Jun-11 18:00N 37°56' E 023°38'0 0.0
2018-Jun-11 17:30N 37°56' E 023°38'1 1.8
2018-Jun-11 17:00N 37°56' E 023°37'2 4.1
2018-Jun-11 16:30N 37°57' E 023°35'1 1.6
2018-Jun-11 16:00N 37°57' E 023°34'1 2.4
2018-Jun-11 15:30N 37°57' E 023°36'0 0.2
2018-Jun-11 15:00N 37°57' E 023°35'0 0.0
2018-Jun-11 14:30N 37°57' E 023°35'0 0.0
2018-Jun-11 14:01N 37°57' E 023°35'1 2.2
2018-Jun-11 13:30N 37°57' E 023°34'0 0.5
2018-Jun-11 13:00N 37°57' E 023°34'0 0.3
2018-Jun-11 12:30N 37°58' E 023°34'2 3.7
2018-Jun-11 12:01N 37°57' E 023°36'1 1.7
2018-Jun-11 11:30N 37°58' E 023°37'0 0.0
2018-Jun-11 11:00N 37°58' E 023°37'0 0.0
2018-Jun-11 10:30N 37°58' E 023°37'0 0.0
2018-Jun-11 10:00N 37°58' E 023°37'0 0.0
2018-Jun-11 09:30N 37°58' E 023°37'0 0.0
2018-Jun-11 09:00N 37°58' E 023°37'0 0.0
2018-Jun-11 08:31N 37°58' E 023°37'0 0.0
2018-Jun-11 08:00N 37°58' E 023°37'0 0.0
2018-Jun-11 07:30N 37°58' E 023°37'0 0.0
2018-Jun-11 07:00N 37°58' E 023°37'0 0.0
2018-Jun-11 06:30N 37°58' E 023°37'0 0.0
2018-Jun-11 06:00N 37°58' E 023°37'0 0.0
2018-Jun-11 05:30N 37°58' E 023°37'0 0.0
2018-Jun-11 05:00N 37°58' E 023°37'0 0.0
2018-Jun-11 04:30N 37°58' E 023°37'0 0.0
2018-Jun-11 04:00N 37°58' E 023°37'0 0.0
2018-Jun-11 03:30N 37°58' E 023°37'  

Dump ship's entire track history